createdAt,value
2018-03-07T00:00:02.689Z,76.32
2018-03-07T00:02:30.110Z,76.30
2018-03-07T00:04:57.509Z,76.75
2018-03-07T00:07:24.934Z,77.08
2018-03-07T00:21:16.198Z,77.68
2018-03-07T00:23:43.592Z,77.48
2018-03-07T00:26:10.985Z,77.86
2018-03-07T00:28:38.539Z,78.20
2018-03-07T00:31:06.019Z,76.99
2018-03-07T00:33:33.531Z,77.26
2018-03-07T00:36:00.929Z,76.52
2018-03-07T00:38:28.311Z,77.24
2018-03-07T00:40:55.716Z,77.69
2018-03-07T00:43:23.175Z,76.56
2018-03-07T00:45:50.568Z,76.64
2018-03-07T00:48:18.041Z,76.80
2018-03-07T00:50:45.593Z,76.97
2018-03-07T00:53:13.110Z,77.39
2018-03-07T00:55:40.668Z,76.83
2018-03-07T00:58:08.141Z,76.68
2018-03-07T01:00:35.593Z,76.18
2018-03-07T01:03:03.046Z,75.71
2018-03-07T01:05:30.476Z,76.22
2018-03-07T01:07:57.901Z,76.76
2018-03-07T01:10:25.349Z,76.46
2018-03-07T01:12:52.883Z,77.21
2018-03-07T01:15:20.303Z,76.08
2018-03-07T01:17:47.790Z,77.34
2018-03-07T01:20:15.378Z,77.06
2018-03-07T01:22:44.182Z,77.21
2018-03-07T01:25:11.573Z,78.02
2018-03-07T01:27:39.061Z,77.39
2018-03-07T01:30:08.394Z,76.70
2018-03-07T01:32:35.874Z,76.53
2018-03-07T01:35:03.363Z,77.65
2018-03-07T01:37:30.769Z,77.95
2018-03-07T01:42:48.511Z,77.08
2018-03-07T01:45:15.919Z,77.34
2018-03-07T01:47:43.318Z,77.32
2018-03-07T01:50:10.703Z,76.90
2018-03-07T01:52:38.138Z,77.87
2018-03-07T01:55:05.734Z,78.29
2018-03-07T01:57:33.339Z,77.65
2018-03-07T02:00:01.749Z,77.99
2018-03-07T02:02:29.331Z,77.50
2018-03-07T02:04:56.736Z,77.49
2018-03-07T02:07:24.125Z,77.02
2018-03-07T02:09:52.635Z,76.47
2018-03-07T02:12:20.037Z,77.70
2018-03-07T02:14:47.479Z,77.14
2018-03-07T02:17:14.973Z,77.11
2018-03-07T02:19:43.337Z,77.21
2018-03-07T02:22:10.744Z,77.20
2018-03-07T02:24:38.149Z,77.06
2018-03-07T02:27:05.691Z,77.12
2018-03-07T02:29:33.386Z,76.39
2018-03-07T02:32:01.001Z,76.42
2018-03-07T02:34:28.426Z,75.67
2018-03-07T02:36:55.831Z,75.56
2018-03-07T02:39:23.230Z,75.17
2018-03-07T02:41:50.635Z,75.62
2018-03-07T02:44:18.021Z,75.12
2018-03-07T02:46:45.477Z,76.18
2018-03-07T02:49:13.622Z,76.66
2018-03-07T02:51:41.028Z,75.77
2018-03-07T02:54:08.432Z,75.40
2018-03-07T02:56:35.836Z,75.53
2018-03-07T02:59:03.323Z,74.39
2018-03-07T03:01:30.756Z,74.43
2018-03-07T03:03:58.214Z,75.24
2018-03-07T03:06:25.609Z,76.86
2018-03-07T03:08:53.027Z,75.70
2018-03-07T03:11:20.506Z,75.89
2018-03-07T03:13:48.913Z,75.79
2018-03-07T03:16:16.328Z,75.28
2018-03-07T03:18:44.157Z,75.89
2018-03-07T03:21:11.581Z,75.37
2018-03-07T03:23:38.980Z,75.97
2018-03-07T03:26:06.391Z,76.40
2018-03-07T03:28:33.894Z,75.21
2018-03-07T03:31:01.279Z,74.78
2018-03-07T03:33:28.800Z,75.49
2018-03-07T03:35:56.167Z,75.13
2018-03-07T03:38:23.752Z,75.75
2018-03-07T03:40:51.352Z,76.93
2018-03-07T03:43:18.746Z,77.10
2018-03-07T03:45:46.298Z,76.92
2018-03-07T03:48:14.336Z,76.55
2018-03-07T03:50:42.412Z,76.18
2018-03-07T03:53:09.828Z,76.68
2018-03-07T03:55:37.215Z,76.26
2018-03-07T03:58:04.596Z,75.91
2018-03-07T04:00:32.021Z,76.85
2018-03-07T04:03:00.302Z,77.24
2018-03-07T04:05:27.690Z,77.69
2018-03-07T04:07:55.087Z,77.49
2018-03-07T04:10:22.901Z,77.03
2018-03-07T04:12:50.320Z,76.76
2018-03-07T04:15:17.747Z,77.32
2018-03-07T04:17:45.264Z,77.00
2018-03-07T04:20:14.686Z,77.66
2018-03-07T04:22:42.079Z,76.81
2018-03-07T04:25:09.540Z,76.94
2018-03-07T04:27:36.939Z,76.56
2018-03-07T04:30:04.343Z,78.00
2018-03-07T04:32:31.752Z,77.39
2018-03-07T04:34:59.141Z,77.18
2018-03-07T04:37:26.698Z,76.38
2018-03-07T04:39:54.094Z,76.31
2018-03-07T04:42:21.592Z,76.18
2018-03-07T04:44:49.020Z,76.17
2018-03-07T04:47:16.621Z,76.29
2018-03-07T04:49:44.967Z,75.76
2018-03-07T04:52:12.361Z,75.54
2018-03-07T04:54:39.748Z,74.61
2018-03-07T04:57:07.149Z,74.80
2018-03-07T04:59:34.887Z,74.06
2018-03-07T05:02:02.268Z,74.17
2018-03-07T05:04:29.760Z,75.30
2018-03-07T05:06:57.148Z,75.71
2018-03-07T05:09:24.539Z,76.64
2018-03-07T05:11:51.963Z,75.86
2018-03-07T05:14:19.375Z,76.55
2018-03-07T05:16:46.759Z,77.62
2018-03-07T05:19:14.304Z,77.29
2018-03-07T05:21:42.613Z,76.85
2018-03-07T05:24:10.084Z,77.09
2018-03-07T05:26:37.447Z,77.67
2018-03-07T05:29:04.853Z,77.71
2018-03-07T05:31:32.248Z,77.37
2018-03-07T05:33:59.666Z,77.28
2018-03-07T05:36:27.049Z,77.89
2018-03-07T05:38:54.426Z,77.31
2018-03-07T05:41:21.835Z,76.97
2018-03-07T05:43:49.230Z,76.81
2018-03-07T05:46:16.986Z,77.31
2018-03-07T05:48:44.385Z,76.77
2018-03-07T05:51:11.768Z,76.88
2018-03-07T05:53:39.186Z,76.46
2018-03-07T05:56:06.787Z,76.72
2018-03-07T05:58:34.183Z,77.87
2018-03-07T06:01:01.556Z,77.18
2018-03-07T06:03:28.965Z,78.47
2018-03-07T06:05:56.497Z,78.76
2018-03-07T06:08:23.874Z,77.86
2018-03-07T06:10:51.335Z,77.43
2018-03-07T06:13:18.721Z,77.27
2018-03-07T06:15:46.114Z,78.29
2018-03-07T06:18:14.746Z,79.08
2018-03-07T06:20:42.230Z,78.21
2018-03-07T06:23:09.612Z,78.80
2018-03-07T06:25:38.166Z,77.46
2018-03-07T06:28:05.552Z,77.40
2018-03-07T06:30:32.957Z,77.91
2018-03-07T06:33:00.341Z,77.77
2018-03-07T06:35:28.197Z,77.85
2018-03-07T06:37:56.673Z,77.70
2018-03-07T06:40:24.055Z,78.55
2018-03-07T06:42:51.448Z,79.17
2018-03-07T06:45:18.844Z,78.22
2018-03-07T06:47:46.380Z,79.18
2018-03-07T06:50:14.609Z,81.60
2018-03-07T06:52:42.754Z,82.03
2018-03-07T06:55:10.180Z,80.85
2018-03-07T06:57:38.363Z,81.82
2018-03-07T07:00:05.762Z,82.65
2018-03-07T07:02:33.153Z,80.48
2018-03-07T07:05:00.549Z,80.79
2018-03-07T07:07:27.957Z,80.22
2018-03-07T07:09:55.455Z,79.47
2018-03-07T07:12:22.869Z,79.26
2018-03-07T07:14:50.425Z,80.32
2018-03-07T07:17:17.812Z,79.76
2018-03-07T07:19:45.659Z,79.80
2018-03-07T07:22:13.104Z,79.38
2018-03-07T07:24:40.503Z,79.44
2018-03-07T07:27:07.909Z,79.35
2018-03-07T07:29:35.311Z,79.17
2018-03-07T07:32:02.696Z,78.89
2018-03-07T07:34:30.115Z,78.78
2018-03-07T07:36:57.527Z,78.26
2018-03-07T07:39:24.905Z,78.83
2018-03-07T07:41:52.321Z,78.45
2018-03-07T07:44:19.703Z,78.28
2018-03-07T07:46:47.089Z,78.77
2018-03-07T07:49:14.868Z,78.96
2018-03-07T07:51:42.264Z,78.93
2018-03-07T07:54:09.688Z,78.92
2018-03-07T07:56:37.131Z,79.13
2018-03-07T07:59:04.694Z,78.32
2018-03-07T08:01:32.083Z,79.31
2018-03-07T08:03:59.471Z,78.99
2018-03-07T08:06:26.881Z,79.87
2018-03-07T08:08:54.450Z,78.96
2018-03-07T08:11:21.991Z,78.96
2018-03-07T08:13:49.783Z,78.10
2018-03-07T08:16:17.183Z,78.21
2018-03-07T08:18:44.912Z,77.60
2018-03-07T08:21:12.324Z,77.70
2018-03-07T08:23:39.810Z,77.24
2018-03-07T08:26:07.628Z,77.61
2018-03-07T08:28:37.294Z,77.86
2018-03-07T08:31:04.834Z,76.83
2018-03-07T08:33:32.388Z,76.73
2018-03-07T08:35:59.772Z,77.15
2018-03-07T08:38:27.173Z,76.55
2018-03-07T08:40:54.561Z,76.22
2018-03-07T08:43:21.959Z,76.47
2018-03-07T08:45:49.699Z,75.17
2018-03-07T08:48:17.353Z,75.83
2018-03-07T08:50:45.040Z,76.18
2018-03-07T08:53:12.455Z,76.40
2018-03-07T08:55:39.940Z,75.67
2018-03-07T08:58:07.332Z,75.38
2018-03-07T09:00:34.720Z,75.88
2018-03-07T09:03:02.263Z,75.12
2018-03-07T09:05:29.661Z,75.49
2018-03-07T09:07:57.049Z,74.85
2018-03-07T09:10:24.658Z,74.50
2018-03-07T09:12:52.985Z,73.32
2018-03-07T09:15:20.364Z,73.98
2018-03-07T09:17:47.758Z,73.36
2018-03-07T09:20:16.006Z,73.43
2018-03-07T09:22:43.407Z,72.90
2018-03-07T09:25:10.815Z,72.84
2018-03-07T09:27:38.219Z,72.85
2018-03-07T09:30:05.605Z,72.70
2018-03-07T09:32:33.005Z,71.69
2018-03-07T09:35:00.422Z,72.25
2018-03-07T09:37:27.823Z,71.72
2018-03-07T09:39:55.286Z,71.45
2018-03-07T09:42:22.687Z,71.19
2018-03-07T09:44:50.141Z,71.57
2018-03-07T09:47:17.768Z,71.52
2018-03-07T09:49:45.606Z,71.83
2018-03-07T09:52:12.996Z,72.13
2018-03-07T09:54:40.453Z,71.88
2018-03-07T09:57:07.896Z,72.13
2018-03-07T09:59:35.463Z,72.44
2018-03-07T10:02:02.841Z,72.27
2018-03-07T10:04:30.277Z,72.43
2018-03-07T10:06:57.668Z,71.16
2018-03-07T10:09:26.144Z,70.54
2018-03-07T10:11:53.553Z,71.98
2018-03-07T10:14:20.928Z,71.94
2018-03-07T10:16:48.335Z,72.49
2018-03-07T10:19:16.777Z,72.34
2018-03-07T10:21:44.198Z,72.52
2018-03-07T10:24:12.893Z,72.37
2018-03-07T10:26:40.306Z,72.14
2018-03-07T10:29:07.731Z,71.85
2018-03-07T10:31:35.097Z,72.08
2018-03-07T10:34:02.577Z,73.77
2018-03-07T10:36:30.061Z,72.85
2018-03-07T10:38:57.494Z,71.79
2018-03-07T10:41:25.133Z,70.99
2018-03-07T10:43:52.591Z,70.78
2018-03-07T10:46:19.985Z,69.06
2018-03-07T10:48:47.566Z,67.12
2018-03-07T10:51:15.702Z,65.93
2018-03-07T10:53:43.654Z,66.11
2018-03-07T10:56:11.035Z,65.64
2018-03-07T10:58:38.621Z,64.97
2018-03-07T11:01:06.032Z,64.61
2018-03-07T11:03:33.550Z,63.68
2018-03-07T11:06:01.227Z,63.54
2018-03-07T11:08:28.653Z,62.97
2018-03-07T11:10:56.032Z,62.72
2018-03-07T11:13:23.440Z,62.13
2018-03-07T11:15:50.897Z,62.35
2018-03-07T11:18:18.321Z,62.16
2018-03-07T11:20:45.869Z,61.72
2018-03-07T11:23:13.267Z,61.27
2018-03-07T11:25:40.686Z,60.97
2018-03-07T11:28:08.057Z,60.83
2018-03-07T11:30:35.457Z,60.36
2018-03-07T11:33:02.849Z,60.88
2018-03-07T11:35:30.233Z,60.84
2018-03-07T11:37:57.627Z,60.35
2018-03-07T11:40:25.333Z,60.21
2018-03-07T11:42:52.728Z,59.01
2018-03-07T11:45:20.359Z,58.84
2018-03-07T11:47:47.798Z,58.53
2018-03-07T11:50:15.800Z,58.85
2018-03-07T11:52:43.362Z,58.49
2018-03-07T11:55:11.032Z,58.36
2018-03-07T11:57:38.442Z,57.32
2018-03-07T12:00:06.069Z,57.36
2018-03-07T12:02:33.654Z,57.45
2018-03-07T12:05:01.162Z,57.26
2018-03-07T12:07:28.588Z,56.89
2018-03-07T12:09:56.494Z,56.82
2018-03-07T12:12:24.128Z,56.04
2018-03-07T12:14:51.633Z,55.88
2018-03-07T12:17:19.085Z,55.18
2018-03-07T12:19:47.655Z,54.66
2018-03-07T12:22:15.495Z,53.83
2018-03-07T12:24:42.901Z,53.81
2018-03-07T12:27:10.439Z,53.11
2018-03-07T12:29:37.982Z,52.88
2018-03-07T12:32:05.376Z,53.33
2018-03-07T12:34:33.092Z,53.47
2018-03-07T12:37:00.548Z,53.56
2018-03-07T12:39:27.993Z,54.04
2018-03-07T12:41:55.413Z,54.05
2018-03-07T12:44:22.795Z,54.58
2018-03-07T12:46:50.208Z,54.62
2018-03-07T12:49:17.689Z,55.08
2018-03-07T12:51:46.153Z,54.98
2018-03-07T12:54:13.599Z,54.36
2018-03-07T12:56:42.132Z,54.50
2018-03-07T12:59:09.533Z,53.75
2018-03-07T13:01:36.920Z,53.23
2018-03-07T13:04:04.288Z,51.96
2018-03-07T13:06:31.684Z,51.68
2018-03-07T13:08:59.337Z,51.46
2018-03-07T13:11:26.724Z,52.09
2018-03-07T13:13:54.147Z,52.92
2018-03-07T13:16:21.543Z,53.32
2018-03-07T13:18:48.946Z,53.95
2018-03-07T13:21:18.324Z,54.66
2018-03-07T13:23:46.340Z,56.29
2018-03-07T13:26:13.750Z,54.63
2018-03-07T13:28:41.141Z,53.88
2018-03-07T13:31:08.562Z,53.58
2018-03-07T13:33:35.949Z,52.88
2018-03-07T13:36:03.415Z,52.29
2018-03-07T13:38:31.048Z,52.06
2018-03-07T13:40:58.468Z,52.80
2018-03-07T13:43:26.023Z,52.99
2018-03-07T13:45:53.442Z,52.43
2018-03-07T13:48:20.855Z,52.33
2018-03-07T13:50:48.265Z,52.06
2018-03-07T13:53:16.509Z,52.01
2018-03-07T13:55:44.892Z,50.83
2018-03-07T13:58:12.305Z,50.82
2018-03-07T14:00:39.684Z,48.28
2018-03-07T14:03:07.093Z,48.99
2018-03-07T14:05:34.653Z,49.90
2018-03-07T14:08:03.160Z,49.90
2018-03-07T14:10:30.528Z,48.90
2018-03-07T14:12:58.026Z,47.11
2018-03-07T14:15:25.742Z,44.47
2018-03-07T14:17:53.309Z,43.43
2018-03-07T14:20:20.700Z,45.74
2018-03-07T14:22:48.144Z,46.46
2018-03-07T14:25:16.560Z,48.14
2018-03-07T14:27:48.102Z,47.78
2018-03-07T14:30:15.510Z,47.98
2018-03-07T14:32:42.991Z,47.89
2018-03-07T14:35:10.401Z,48.25
2018-03-07T14:37:38.029Z,48.61
2018-03-07T14:40:05.669Z,49.22
2018-03-07T14:42:34.190Z,49.71
2018-03-07T14:45:01.637Z,49.43
2018-03-07T14:47:29.025Z,49.75
2018-03-07T14:49:56.496Z,47.51
2018-03-07T14:52:23.960Z,44.11
2018-03-07T14:54:51.392Z,42.04
2018-03-07T14:57:19.069Z,42.21
2018-03-07T14:59:46.850Z,44.42
2018-03-07T15:02:14.349Z,46.07
2018-03-07T15:04:41.783Z,44.15
2018-03-07T15:07:09.376Z,42.40
2018-03-07T15:09:36.803Z,40.44
2018-03-07T15:12:04.219Z,40.97
2018-03-07T15:14:31.692Z,42.93
2018-03-07T15:16:59.237Z,43.67
2018-03-07T15:19:26.660Z,45.12
2018-03-07T15:21:54.083Z,46.17
2018-03-07T15:24:21.524Z,47.17
2018-03-07T15:26:49.085Z,47.59
2018-03-07T15:29:16.882Z,47.81
2018-03-07T15:31:44.512Z,47.58
2018-03-07T15:34:12.163Z,49.02
2018-03-07T15:36:39.565Z,49.18
2018-03-07T15:39:07.097Z,50.02
2018-03-07T15:41:34.651Z,50.45
2018-03-07T15:44:02.200Z,51.06
2018-03-07T15:46:29.640Z,51.48
2018-03-07T15:48:57.481Z,51.29
2018-03-07T15:51:25.004Z,51.24
2018-03-07T15:53:52.427Z,52.89
2018-03-07T15:56:19.820Z,52.97
2018-03-07T15:58:47.403Z,53.41
2018-03-07T16:01:14.793Z,53.04
2018-03-07T16:03:42.191Z,53.12
2018-03-07T16:06:09.688Z,52.85
2018-03-07T16:08:37.320Z,54.00
2018-03-07T16:11:04.705Z,55.15
2018-03-07T16:13:32.137Z,55.59
2018-03-07T16:15:59.817Z,56.16
2018-03-07T16:18:28.305Z,57.29
2018-03-07T16:20:55.781Z,57.58
2018-03-07T16:23:24.270Z,57.32
2018-03-07T16:25:51.645Z,58.28
2018-03-07T16:28:19.072Z,58.18
2018-03-07T16:30:47.172Z,61.52
2018-03-07T16:33:14.932Z,64.54
2018-03-07T16:35:42.384Z,66.01
2018-03-07T16:38:09.910Z,65.93
2018-03-07T16:40:37.337Z,67.23
2018-03-07T16:43:04.715Z,69.42
2018-03-07T16:45:32.121Z,70.55
2018-03-07T16:47:59.601Z,68.98
2018-03-07T16:50:26.989Z,67.87
2018-03-07T16:52:54.397Z,67.22
2018-03-07T16:55:21.972Z,68.16
2018-03-07T16:57:49.811Z,67.37
2018-03-07T17:00:17.300Z,67.32
2018-03-07T17:02:45.089Z,68.15
2018-03-07T17:05:12.845Z,67.80
2018-03-07T17:07:40.254Z,68.14
2018-03-07T17:10:07.745Z,67.25
2018-03-07T17:12:35.272Z,67.50
2018-03-07T17:15:02.998Z,67.84
2018-03-07T17:17:30.367Z,67.63
2018-03-07T17:19:57.747Z,68.07
2018-03-07T17:22:25.172Z,67.51
2018-03-07T17:24:52.640Z,67.93
2018-03-07T17:27:20.018Z,68.20
2018-03-07T17:29:47.462Z,67.54
2018-03-07T17:32:14.907Z,67.81
2018-03-07T17:34:42.303Z,67.52
2018-03-07T17:37:09.720Z,67.52
2018-03-07T17:39:37.085Z,67.83
2018-03-07T17:42:04.833Z,68.12
2018-03-07T17:44:32.272Z,67.11
2018-03-07T17:46:59.665Z,67.70
2018-03-07T17:49:27.344Z,67.45
2018-03-07T17:51:54.766Z,67.39
2018-03-07T17:54:22.285Z,67.56
2018-03-07T17:56:49.684Z,67.62
2018-03-07T17:59:17.519Z,66.73
2018-03-07T18:01:44.939Z,66.75
2018-03-07T18:04:12.375Z,66.97
2018-03-07T18:06:39.749Z,66.84
2018-03-07T18:09:07.139Z,66.47
2018-03-07T18:11:34.770Z,67.10
2018-03-07T18:14:02.214Z,67.26
2018-03-07T18:16:29.644Z,66.93
2018-03-07T18:18:57.044Z,67.26
2018-03-07T18:21:24.509Z,67.20
2018-03-07T18:23:52.107Z,66.72
2018-03-07T18:26:19.485Z,67.18
2018-03-07T18:28:47.612Z,65.98
2018-03-07T18:31:15.009Z,66.08
2018-03-07T18:33:42.393Z,66.10
2018-03-07T18:36:10.496Z,66.27
2018-03-07T18:38:37.970Z,65.86
2018-03-07T18:41:06.289Z,66.21
2018-03-07T18:43:33.733Z,65.49
2018-03-07T18:46:01.678Z,66.11
2018-03-07T18:48:29.102Z,65.59
2018-03-07T18:50:56.541Z,65.21
2018-03-07T18:53:24.053Z,65.65
2018-03-07T18:55:51.435Z,65.30
2018-03-07T18:58:19.076Z,65.78
2018-03-07T19:00:46.569Z,66.26
2018-03-07T19:03:18.289Z,66.36
2018-03-07T19:05:45.960Z,67.40
2018-03-07T19:08:13.600Z,67.17
2018-03-07T19:10:41.044Z,67.18
2018-03-07T19:13:08.489Z,67.81
2018-03-07T19:15:35.928Z,68.30
2018-03-07T19:18:03.412Z,69.59
2018-03-07T19:20:31.155Z,69.46
2018-03-07T19:22:58.833Z,68.54
2018-03-07T19:25:26.306Z,68.12
2018-03-07T19:27:53.684Z,67.99
2018-03-07T19:30:21.691Z,68.14
2018-03-07T19:32:49.087Z,67.83
2018-03-07T19:35:16.664Z,67.59
2018-03-07T19:37:44.112Z,67.37
2018-03-07T19:40:11.514Z,66.91
2018-03-07T19:42:38.924Z,66.23
2018-03-07T19:45:06.538Z,66.40
2018-03-07T19:47:34.035Z,65.78
2018-03-07T19:50:01.596Z,65.77
2018-03-07T19:52:28.983Z,66.21
2018-03-07T19:54:56.592Z,65.83
2018-03-07T19:57:23.975Z,65.71
2018-03-07T19:59:51.354Z,65.77
2018-03-07T20:02:18.736Z,64.99
2018-03-07T20:04:46.116Z,65.56
2018-03-07T20:07:13.510Z,65.18
2018-03-07T20:09:40.872Z,65.25
2018-03-07T20:12:08.269Z,65.12
2018-03-07T20:14:35.634Z,64.49
2018-03-07T20:17:03.076Z,65.23
2018-03-07T20:19:30.473Z,65.58
2018-03-07T20:21:57.859Z,65.78
2018-03-07T20:24:25.265Z,65.67
2018-03-07T20:26:52.639Z,65.50
2018-03-07T20:29:20.021Z,65.61
2018-03-07T20:31:48.367Z,65.27
2018-03-07T20:34:15.878Z,65.21
2018-03-07T20:36:43.286Z,65.14
2018-03-07T20:39:10.771Z,64.98
2018-03-07T20:41:38.178Z,64.55
2018-03-07T20:44:05.572Z,65.31
2018-03-07T20:46:32.981Z,65.12
2018-03-07T20:49:00.549Z,65.46
2018-03-07T20:51:27.994Z,65.27
2018-03-07T20:53:55.401Z,64.62
2018-03-07T20:56:22.846Z,64.71
2018-03-07T20:58:50.218Z,64.83
2018-03-07T21:01:20.434Z,64.25
2018-03-07T21:03:48.471Z,64.62
2018-03-07T21:06:15.887Z,64.32
2018-03-07T21:08:43.294Z,64.19
2018-03-07T21:11:10.722Z,64.38
2018-03-07T21:13:38.253Z,65.09
2018-03-07T21:16:05.737Z,64.97
2018-03-07T21:18:34.049Z,64.70
2018-03-07T21:21:01.580Z,65.17
2018-03-07T21:23:28.975Z,65.51
2018-03-07T21:25:56.413Z,65.49
2018-03-07T21:28:23.795Z,65.23
2018-03-07T21:30:51.217Z,65.31
2018-03-07T21:33:18.752Z,65.01
2018-03-07T21:35:46.132Z,65.60
2018-03-07T21:38:13.516Z,65.41
2018-03-07T21:40:41.379Z,65.95
2018-03-07T21:43:08.818Z,66.05
2018-03-07T21:45:36.544Z,66.08
2018-03-07T21:48:03.976Z,66.15
2018-03-07T21:50:31.360Z,66.19
2018-03-07T21:52:58.872Z,66.37
2018-03-07T21:55:26.403Z,66.44
2018-03-07T21:57:53.801Z,66.61
2018-03-07T22:00:21.206Z,66.17
2018-03-07T22:02:48.677Z,66.56
2018-03-07T22:05:16.148Z,66.62
2018-03-07T22:07:43.621Z,66.33
2018-03-07T22:10:11.017Z,66.66
2018-03-07T22:12:38.776Z,67.15
2018-03-07T22:15:06.207Z,67.47
2018-03-07T22:17:33.589Z,67.33
2018-03-07T22:20:00.981Z,67.44
2018-03-07T22:22:28.437Z,67.69
2018-03-07T22:24:55.972Z,67.58
2018-03-07T22:27:23.366Z,67.49
2018-03-07T22:29:50.793Z,67.82
2018-03-07T22:32:18.767Z,68.02
2018-03-07T22:34:46.159Z,67.69
2018-03-07T22:37:13.629Z,67.57
2018-03-07T22:39:40.951Z,67.54
2018-03-07T22:42:08.602Z,67.41
2018-03-07T22:44:36.201Z,68.14
2018-03-07T22:47:03.653Z,67.93
2018-03-07T22:49:31.263Z,67.94
2018-03-07T22:52:00.083Z,67.30
2018-03-07T22:54:27.540Z,67.44
2018-03-07T22:56:55.045Z,66.89
2018-03-07T22:59:22.432Z,66.37
2018-03-07T23:01:49.828Z,66.14
2018-03-07T23:04:17.421Z,67.02
2018-03-07T23:06:44.889Z,66.87
2018-03-07T23:09:12.279Z,66.89
2018-03-07T23:11:39.669Z,66.51
2018-03-07T23:14:07.072Z,66.20
2018-03-07T23:16:34.501Z,67.12
2018-03-07T23:19:02.524Z,67.57
2018-03-07T23:21:29.903Z,67.72
2018-03-07T23:23:57.297Z,67.27
2018-03-07T23:26:25.015Z,67.83
2018-03-07T23:28:52.398Z,68.13
2018-03-07T23:31:20.032Z,68.24
2018-03-07T23:33:47.572Z,68.32
2018-03-07T23:36:15.033Z,68.19
2018-03-07T23:38:42.436Z,68.39
2018-03-07T23:41:09.939Z,68.33
2018-03-07T23:43:37.397Z,68.67
2018-03-07T23:46:04.782Z,68.58
2018-03-07T23:48:32.373Z,68.23
2018-03-07T23:50:59.783Z,67.89
2018-03-07T23:53:27.685Z,67.99
2018-03-07T23:55:55.172Z,68.19
2018-03-07T23:58:23.583Z,67.84
